Akron, OH (44301)

8:11 AM EST on February 11, 2016 (GMT -0500)
Pro-Tech Systems Group | | Change Station
CLOSE
Current Station
Personal Weather Station
Location: Akron, OH
Elevation: 1004 ft
Nearby Weather Stations

Elev 1004 ft 41.03 °N, 81.52 °W | Updated 43 seconds ago

Light Snow
Light Snow
12.7 °F
Feels Like 13 °F
N
2.9
Wind Variable Wind from South
Gusts 9.0 mph

Today
High -- | Low -- °F
--% Chance of Precip.
Yesterday
High -- | Low -- °F
Precip. -- in
Pressure 30.09 in
Visibility 2.5 miles
Clouds Mostly Cloudy 3000 ft
Overcast 5000 ft
Windchill 13 °F
Dew Point 10 °F
Humidity 88%
Rainfall 0.00 in
Snow Depth Not available.
7:26 AM 5:54 PM
Waxing Crescent, 12% visible
SPECI KAKR 111301Z AUTO 26006KT 2 1/2SM -SN BKN030 OVC050 M11/M14 A3009 RMK AO2 P0000 T11111139
Pressure 30.09 in
Visibility 2.5 miles
Clouds Mostly Cloudy 3000 ft
Overcast 5000 ft
Windchill 13 °F
Dew Point 10 °F
Humidity 88%
Rainfall 0.00 in
Snow Depth Not available.
7:26 AM 5:54 PM
Waxing Crescent, 12% visible
SPECI KAKR 111301Z AUTO 26006KT 2 1/2SM -SN BKN030 OVC050 M11/M14 A3009 RMK AO2 P0000 T11111139

10-Day Weather Forecast

Almanac

Astronomy

Feb. 11, 2016 Rise Set
Actual Time
Civil Twilight
Nautical Twilight
Astronomical Twilight
Moon
Length of Visible Light
Length of Day
Tomorrow will be .
, % of the Moon is Illuminated

Today's Extremes

State Highs State Lows

Community

WunderPhotos

Upload Photos

1,892,040 photos uploaded!

WunderBlog® & News

Nearby

Air Quality

  Air Quality AQ Index Pollutant
Not available.

Snow Depth

Station Depth Elevation

Earthquake Activity

City Distance Mag. Time & Date
Minimum magnitude displayed is 2.5.

Coastal Water Temperatures

Place Temperature

Stations

Nearby Weather Stations

Station Location Temp. Windchill Dew Point Humidity Wind Precip. Elev Updated Type
                   

Watches & Warnings

There are currently no watches in effect.